This is the latest recevied weather packets stored in our database for station/object K9ABJ. If no packets are shown the sender has not sent any weather packets the latest 10 day(s).
| Time | Temp. | Humidity | Pressure | Rain* | Wind** | Luminosity | Snow |
|---|---|---|---|---|---|---|---|
| 1788033556 | 27.22° C | 54% | 1020.3 hPa | 0 mm | - | 225 W/m² | - |
| 1788033251 | 27.22° C | 54% | 1020.3 hPa | 0 mm | - | 232 W/m² | - |
| 1788032947 | 28.89° C | 54% | 1020.4 hPa | 0 mm | - | 263 W/m² | - |
| 1788032646 | 27.78° C | 54% | 1020.4 hPa | 0 mm | - | 245 W/m² | - |
| 1788032341 | 27.22° C | 56% | 1020.5 hPa | 0 mm | - | 346 W/m² | - |
| 1788032036 | 27.78° C | 54% | 1020.5 hPa | 0 mm | - | 323 W/m² | - |
| 1788031732 | 29.44° C | 49% | 1020.6 hPa | 0 mm | - | 307 W/m² | - |
| 1788031431 | 27.22° C | 55% | 1020.6 hPa | 0 mm | - | 317 W/m² | - |
| 1788031127 | 28.89° C | 47% | 1020.6 hPa | 0 mm | - | 328 W/m² | - |
| 1788030825 | 28.89° C | 51% | 1020.7 hPa | 0 mm | - | 367 W/m² | - |
| 1788030525 | 27.22° C | 54% | 1020.8 hPa | 0 mm | - | 483 W/m² | - |
| 1788030221 | 27.78° C | 53% | 1021 hPa | 0 mm | - | 513 W/m² | - |
| 1788029915 | 27.78° C | 52% | 1020.7 hPa | 0 mm | - | 663 W/m² | - |
| 1788029611 | 27.78° C | 51% | 1020.9 hPa | 0 mm | - | 683 W/m² | - |
| 1788029306 | 28.89° C | 51% | 1021 hPa | 0 mm | - | 829 W/m² | - |
| 1788029005 | 28.89° C | 50% | 1021.1 hPa | 0 mm | - | 800 W/m² | - |
| 1788028705 | 27.78° C | 53% | 1021.3 hPa | 0 mm | - | 793 W/m² | - |
| 1788028405 | 27.78° C | 51% | 1021 hPa | 0 mm | - | 701 W/m² | - |
| 1788028101 | 27.22° C | 51% | 1021.4 hPa | 0 mm | - | 486 W/m² | - |
| 1788027801 | 30° C | 50% | 1021.5 hPa | 0 mm | - | 486 W/m² | - |
| 1788027500 | 28.89° C | 51% | 1021.4 hPa | 0 mm | - | 650 W/m² | - |
| 1788027195 | 28.89° C | 51% | 1021.6 hPa | 0 mm | - | 573 W/m² | - |
| 1788026895 | 27.78° C | 47% | 1021.7 hPa | 0 mm | - | 610 W/m² | - |
| 1788026591 | 26.67° C | 56% | 1021.7 hPa | 0 mm | - | 537 W/m² | - |
| 1788026290 | 27.22° C | 54% | 1021.7 hPa | 0 mm | - | 543 W/m² | - |
* Rain latest hour (hover to see other rain measurements)
** Current wind speed in m/s (hover to see current wind gust speed)